
<gpx xmlns="http://www.topografix.com/GPX/1/1" xmlns:gpxx="http://www.garmin.com/xmlschemas/GpxExtensions/v3" xmlns:xsi="http://www.w3.org/2001/XMLSchema-instance" version="1.1" creator="Adze - https://getadze.com/" xsi:schemaLocation="http://www.topografix.com/GPX/1/1 http://www.topografix.com/GPX/1/1/gpx.xsd http://www.garmin.com/xmlschemas/GpxExtensions/v3 http://www.garmin.com/xmlschemas/GpxExtensionsv3.xsd">
    <metadata>
        <name>Untitled Document</name>
        <link href="http://www.garmin.com"></link>
        <time>2018-03-08T04:07:56.838Z</time>
    </metadata>
    <wpt lon="101.867598" lat="14.141985">
        <ele>38.000000</ele>
        <name>Nong Nooch resort</name>
        <cmt>28-JUN-09 10:02:10</cmt>
        <desc>28-JUN-09 10:02:10</desc>
        <sym>Lodging</sym>
        <extensions>
            <gpxx:WaypointExtension xmlns:gpxx="http://www.garmin.com/xmlschemas/GpxExtensions/v3">
                <gpxx:DisplayMode>SymbolAndName</gpxx:DisplayMode>
            </gpxx:WaypointExtension>
        </extensions>
    </wpt>
    <trk>
        <name>June 2009 - Sunday</name>
        <extensions>
            <gpxx:TrackExtension xmlns:gpxx="http://www.garmin.com/xmlschemas/GpxExtensions/v3">
                <gpxx:DisplayColor>Green</gpxx:DisplayColor>
            </gpxx:TrackExtension>
        </extensions>
        <trkseg>
            <trkpt lon="101.867555" lat="14.142039">
                <ele>38.109375</ele>
                <time>2009-06-28T03:00:50Z</time>
            </trkpt>
            <trkpt lon="101.867588" lat="14.142007">
                <ele>40.032105</ele>
                <time>2009-06-28T03:03:52Z</time>
            </trkpt>
            <trkpt lon="101.867771" lat="14.142961">
                <ele>37.148071</ele>
                <time>2009-06-28T03:04:27Z</time>
            </trkpt>
            <trkpt lon="101.867559" lat="14.143370">
                <ele>38.590088</ele>
                <time>2009-06-28T03:04:37Z</time>
            </trkpt>
            <trkpt lon="101.867137" lat="14.143718">
                <ele>40.032105</ele>
                <time>2009-06-28T03:04:48Z</time>
            </trkpt>
            <trkpt lon="101.866664" lat="14.144071">
                <ele>38.109375</ele>
                <time>2009-06-28T03:04:59Z</time>
            </trkpt>
            <trkpt lon="101.865980" lat="14.144350">
                <ele>37.628662</ele>
                <time>2009-06-28T03:05:14Z</time>
            </trkpt>
            <trkpt lon="101.865896" lat="14.144376">
                <ele>36.667481</ele>
                <time>2009-06-28T03:05:16Z</time>
            </trkpt>
            <trkpt lon="101.865913" lat="14.144730">
                <ele>36.186768</ele>
                <time>2009-06-28T03:05:24Z</time>
            </trkpt>
            <trkpt lon="101.866474" lat="14.144779">
                <ele>37.628662</ele>
                <time>2009-06-28T03:05:36Z</time>
            </trkpt>
            <trkpt lon="101.867145" lat="14.144725">
                <ele>37.628662</ele>
                <time>2009-06-28T03:05:49Z</time>
            </trkpt>
            <trkpt lon="101.867379" lat="14.144910">
                <ele>38.109375</ele>
                <time>2009-06-28T03:05:57Z</time>
            </trkpt>
            <trkpt lon="101.867531" lat="14.145673">
                <ele>39.070679</ele>
                <time>2009-06-28T03:06:11Z</time>
            </trkpt>
            <trkpt lon="101.867686" lat="14.147323">
                <ele>37.628662</ele>
                <time>2009-06-28T03:06:36Z</time>
            </trkpt>
            <trkpt lon="101.867989" lat="14.147541">
                <ele>38.590088</ele>
                <time>2009-06-28T03:06:43Z</time>
            </trkpt>
            <trkpt lon="101.869002" lat="14.147874">
                <ele>41.473999</ele>
                <time>2009-06-28T03:07:01Z</time>
            </trkpt>
            <trkpt lon="101.869572" lat="14.148079">
                <ele>40.993408</ele>
                <time>2009-06-28T03:07:11Z</time>
            </trkpt>
            <trkpt lon="101.869590" lat="14.148308">
                <ele>40.512817</ele>
                <time>2009-06-28T03:07:18Z</time>
            </trkpt>
            <trkpt lon="101.869051" lat="14.148692">
                <ele>35.225464</ele>
                <time>2009-06-28T03:07:41Z</time>
            </trkpt>
            <trkpt lon="101.869171" lat="14.149041">
                <ele>40.512817</ele>
                <time>2009-06-28T03:07:52Z</time>
            </trkpt>
            <trkpt lon="101.869502" lat="14.149624">
                <ele>42.916016</ele>
                <time>2009-06-28T03:08:09Z</time>
            </trkpt>
            <trkpt lon="101.869642" lat="14.150147">
                <ele>47.241821</ele>
                <time>2009-06-28T03:08:26Z</time>
            </trkpt>
            <trkpt lon="101.869694" lat="14.151015">
                <ele>46.280640</ele>
                <time>2009-06-28T03:08:45Z</time>
            </trkpt>
            <trkpt lon="101.869678" lat="14.151343">
                <ele>43.396606</ele>
                <time>2009-06-28T03:08:53Z</time>
            </trkpt>
            <trkpt lon="101.869347" lat="14.152092">
                <ele>52.048584</ele>
                <time>2009-06-28T03:09:39Z</time>
            </trkpt>
            <trkpt lon="101.869137" lat="14.152642">
                <ele>53.490479</ele>
                <time>2009-06-28T03:10:06Z</time>
            </trkpt>
            <trkpt lon="101.868781" lat="14.152776">
                <ele>61.661743</ele>
                <time>2009-06-28T03:10:48Z</time>
            </trkpt>
            <trkpt lon="101.868406" lat="14.152564">
                <ele>66.948975</ele>
                <time>2009-06-28T03:11:32Z</time>
            </trkpt>
            <trkpt lon="101.868118" lat="14.152529">
                <ele>67.429688</ele>
                <time>2009-06-28T03:11:45Z</time>
            </trkpt>
            <trkpt lon="101.867415" lat="14.152617">
                <ele>60.219727</ele>
                <time>2009-06-28T03:12:16Z</time>
            </trkpt>
            <trkpt lon="101.867554" lat="14.152926">
                <ele>64.065063</ele>
                <time>2009-06-28T03:12:31Z</time>
            </trkpt>
            <trkpt lon="101.867905" lat="14.154707">
                <ele>65.507080</ele>
                <time>2009-06-28T03:13:15Z</time>
            </trkpt>
            <trkpt lon="101.867190" lat="14.154850">
                <ele>67.910278</ele>
                <time>2009-06-28T03:14:28Z</time>
            </trkpt>
            <trkpt lon="101.867205" lat="14.154926">
                <ele>69.832886</ele>
                <time>2009-06-28T03:15:19Z</time>
            </trkpt>
            <trkpt lon="101.867189" lat="14.154981">
                <ele>67.429688</ele>
                <time>2009-06-28T03:15:49Z</time>
            </trkpt>
            <trkpt lon="101.867569" lat="14.155263">
                <ele>70.794190</ele>
                <time>2009-06-28T03:19:13Z</time>
            </trkpt>
            <trkpt lon="101.869183" lat="14.155960">
                <ele>71.274902</ele>
                <time>2009-06-28T03:19:48Z</time>
            </trkpt>
            <trkpt lon="101.869683" lat="14.156160">
                <ele>66.468262</ele>
                <time>2009-06-28T03:19:59Z</time>
            </trkpt>
            <trkpt lon="101.870817" lat="14.157013">
                <ele>46.761231</ele>
                <time>2009-06-28T03:20:32Z</time>
            </trkpt>
            <trkpt lon="101.871103" lat="14.157318">
                <ele>44.358032</ele>
                <time>2009-06-28T03:20:45Z</time>
            </trkpt>
            <trkpt lon="101.871417" lat="14.158070">
                <ele>44.838623</ele>
                <time>2009-06-28T03:20:59Z</time>
            </trkpt>
            <trkpt lon="101.871568" lat="14.158834">
                <ele>43.877319</ele>
                <time>2009-06-28T03:21:12Z</time>
            </trkpt>
            <trkpt lon="101.871604" lat="14.159005">
                <ele>43.396606</ele>
                <time>2009-06-28T03:21:15Z</time>
            </trkpt>
            <trkpt lon="101.872236" lat="14.159913">
                <ele>42.435425</ele>
                <time>2009-06-28T03:21:39Z</time>
            </trkpt>
            <trkpt lon="101.872901" lat="14.160392">
                <ele>42.435425</ele>
                <time>2009-06-28T03:22:03Z</time>
            </trkpt>
            <trkpt lon="101.873224" lat="14.160861">
                <ele>43.877319</ele>
                <time>2009-06-28T03:22:28Z</time>
            </trkpt>
            <trkpt lon="101.874092" lat="14.161568">
                <ele>44.358032</ele>
                <time>2009-06-28T03:22:56Z</time>
            </trkpt>
            <trkpt lon="101.874380" lat="14.161974">
                <ele>46.280640</ele>
                <time>2009-06-28T03:23:10Z</time>
            </trkpt>
            <trkpt lon="101.875039" lat="14.162128">
                <ele>43.877319</ele>
                <time>2009-06-28T03:23:27Z</time>
            </trkpt>
            <trkpt lon="101.875586" lat="14.162769">
                <ele>41.954712</ele>
                <time>2009-06-28T03:23:48Z</time>
            </trkpt>
            <trkpt lon="101.876846" lat="14.163572">
                <ele>45.319214</ele>
                <time>2009-06-28T03:24:27Z</time>
            </trkpt>
            <trkpt lon="101.877062" lat="14.163858">
                <ele>46.280640</ele>
                <time>2009-06-28T03:24:41Z</time>
            </trkpt>
            <trkpt lon="101.877053" lat="14.164241">
                <ele>47.722534</ele>
                <time>2009-06-28T03:24:59Z</time>
            </trkpt>
            <trkpt lon="101.877691" lat="14.164640">
                <ele>50.606567</ele>
                <time>2009-06-28T03:25:23Z</time>
            </trkpt>
            <trkpt lon="101.878027" lat="14.164741">
                <ele>52.529175</ele>
                <time>2009-06-28T03:25:36Z</time>
            </trkpt>
            <trkpt lon="101.880384" lat="14.164628">
                <ele>55.413086</ele>
                <time>2009-06-28T03:26:28Z</time>
            </trkpt>
            <trkpt lon="101.881563" lat="14.163859">
                <ele>58.777710</ele>
                <time>2009-06-28T03:27:02Z</time>
            </trkpt>
            <trkpt lon="101.882091" lat="14.162920">
                <ele>60.700317</ele>
                <time>2009-06-28T03:29:07Z</time>
            </trkpt>
            <trkpt lon="101.881761" lat="14.163608">
                <ele>48.683960</ele>
                <time>2009-06-28T03:29:56Z</time>
            </trkpt>
            <trkpt lon="101.881843" lat="14.163749">
                <ele>49.645264</ele>
                <time>2009-06-28T03:30:05Z</time>
            </trkpt>
            <trkpt lon="101.881686" lat="14.163986">
                <ele>46.761231</ele>
                <time>2009-06-28T03:30:17Z</time>
            </trkpt>
            <trkpt lon="101.881499" lat="14.164194">
                <ele>40.032105</ele>
                <time>2009-06-28T03:30:29Z</time>
            </trkpt>
            <trkpt lon="101.881084" lat="14.164490">
                <ele>40.512817</ele>
                <time>2009-06-28T03:30:44Z</time>
            </trkpt>
            <trkpt lon="101.874686" lat="14.166953">
                <ele>68.871582</ele>
                <time>2009-06-28T03:35:07Z</time>
            </trkpt>
            <trkpt lon="101.870234" lat="14.168610">
                <ele>53.009766</ele>
                <time>2009-06-28T03:36:40Z</time>
            </trkpt>
            <trkpt lon="101.869376" lat="14.168733">
                <ele>53.009766</ele>
                <time>2009-06-28T03:36:53Z</time>
            </trkpt>
            <trkpt lon="101.868562" lat="14.168540">
                <ele>56.855103</ele>
                <time>2009-06-28T03:37:10Z</time>
            </trkpt>
            <trkpt lon="101.868271" lat="14.168559">
                <ele>54.451782</ele>
                <time>2009-06-28T03:37:19Z</time>
            </trkpt>
            <trkpt lon="101.868141" lat="14.169465">
                <ele>65.026367</ele>
                <time>2009-06-28T03:38:11Z</time>
            </trkpt>
            <trkpt lon="101.868149" lat="14.169690">
                <ele>66.948975</ele>
                <time>2009-06-28T03:38:23Z</time>
            </trkpt>
            <trkpt lon="101.867389" lat="14.170605">
                <ele>66.948975</ele>
                <time>2009-06-28T03:39:32Z</time>
            </trkpt>
            <trkpt lon="101.866606" lat="14.171250">
                <ele>58.777710</ele>
                <time>2009-06-28T03:40:23Z</time>
            </trkpt>
            <trkpt lon="101.866513" lat="14.171467">
                <ele>64.065063</ele>
                <time>2009-06-28T03:40:36Z</time>
            </trkpt>
            <trkpt lon="101.866363" lat="14.171723">
                <ele>65.987671</ele>
                <time>2009-06-28T03:40:53Z</time>
            </trkpt>
            <trkpt lon="101.866202" lat="14.172257">
                <ele>76.081421</ele>
                <time>2009-06-28T03:41:19Z</time>
            </trkpt>
            <trkpt lon="101.865972" lat="14.172761">
                <ele>82.330078</ele>
                <time>2009-06-28T03:41:50Z</time>
            </trkpt>
            <trkpt lon="101.865627" lat="14.173130">
                <ele>115.014893</ele>
                <time>2009-06-28T03:45:48Z</time>
            </trkpt>
            <trkpt lon="101.862701" lat="14.172744">
                <ele>90.501343</ele>
                <time>2009-06-28T03:47:47Z</time>
            </trkpt>
            <trkpt lon="101.862508" lat="14.172821">
                <ele>88.098022</ele>
                <time>2009-06-28T03:47:51Z</time>
            </trkpt>
            <trkpt lon="101.861760" lat="14.175089">
                <ele>84.252685</ele>
                <time>2009-06-28T03:48:45Z</time>
            </trkpt>
            <trkpt lon="101.861057" lat="14.174601">
                <ele>83.291382</ele>
                <time>2009-06-28T03:49:06Z</time>
            </trkpt>
            <trkpt lon="101.860864" lat="14.174716">
                <ele>81.368774</ele>
                <time>2009-06-28T03:49:16Z</time>
            </trkpt>
            <trkpt lon="101.860607" lat="14.175267">
                <ele>86.175293</ele>
                <time>2009-06-28T03:49:44Z</time>
            </trkpt>
            <trkpt lon="101.859593" lat="14.177046">
                <ele>81.849365</ele>
                <time>2009-06-28T03:51:22Z</time>
            </trkpt>
            <trkpt lon="101.859197" lat="14.177718">
                <ele>78.004028</ele>
                <time>2009-06-28T03:51:49Z</time>
            </trkpt>
            <trkpt lon="101.858890" lat="14.177766">
                <ele>81.368774</ele>
                <time>2009-06-28T03:51:58Z</time>
            </trkpt>
            <trkpt lon="101.858751" lat="14.177828">
                <ele>80.407471</ele>
                <time>2009-06-28T03:52:03Z</time>
            </trkpt>
            <trkpt lon="101.858310" lat="14.178078">
                <ele>71.755493</ele>
                <time>2009-06-28T03:52:21Z</time>
            </trkpt>
            <trkpt lon="101.857870" lat="14.178140">
                <ele>79.926636</ele>
                <time>2009-06-28T03:52:34Z</time>
            </trkpt>
            <trkpt lon="101.857584" lat="14.178152">
                <ele>71.755493</ele>
                <time>2009-06-28T03:52:44Z</time>
            </trkpt>
            <trkpt lon="101.857345" lat="14.178377">
                <ele>59.739136</ele>
                <time>2009-06-28T03:52:51Z</time>
            </trkpt>
            <trkpt lon="101.856983" lat="14.178487">
                <ele>60.219727</ele>
                <time>2009-06-28T03:52:58Z</time>
            </trkpt>
            <trkpt lon="101.856904" lat="14.179255">
                <ele>81.849365</ele>
                <time>2009-06-28T03:53:17Z</time>
            </trkpt>
            <trkpt lon="101.856493" lat="14.180435">
                <ele>95.788452</ele>
                <time>2009-06-28T03:53:51Z</time>
            </trkpt>
            <trkpt lon="101.856451" lat="14.180850">
                <ele>98.672485</ele>
                <time>2009-06-28T03:54:02Z</time>
            </trkpt>
            <trkpt lon="101.856294" lat="14.180958">
                <ele>92.904541</ele>
                <time>2009-06-28T03:54:13Z</time>
            </trkpt>
            <trkpt lon="101.856243" lat="14.180882">
                <ele>94.827148</ele>
                <time>2009-06-28T03:54:57Z</time>
            </trkpt>
            <trkpt lon="101.856510" lat="14.180734">
                <ele>97.230469</ele>
                <time>2009-06-28T03:55:30Z</time>
            </trkpt>
            <trkpt lon="101.856561" lat="14.180344">
                <ele>99.153076</ele>
                <time>2009-06-28T03:56:34Z</time>
            </trkpt>
            <trkpt lon="101.856847" lat="14.179557">
                <ele>95.788452</ele>
                <time>2009-06-28T03:57:38Z</time>
            </trkpt>
            <trkpt lon="101.856902" lat="14.178789">
                <ele>92.904541</ele>
                <time>2009-06-28T03:58:09Z</time>
            </trkpt>
            <trkpt lon="101.856431" lat="14.178510">
                <ele>92.423950</ele>
                <time>2009-06-28T03:58:31Z</time>
            </trkpt>
            <trkpt lon="101.856130" lat="14.177902">
                <ele>89.059326</ele>
                <time>2009-06-28T03:59:18Z</time>
            </trkpt>
            <trkpt lon="101.856095" lat="14.177844">
                <ele>86.656006</ele>
                <time>2009-06-28T03:59:24Z</time>
            </trkpt>
            <trkpt lon="101.856074" lat="14.177495">
                <ele>89.059326</ele>
                <time>2009-06-28T03:59:39Z</time>
            </trkpt>
            <trkpt lon="101.856313" lat="14.177016">
                <ele>92.423950</ele>
                <time>2009-06-28T04:00:00Z</time>
            </trkpt>
            <trkpt lon="101.856014" lat="14.176263">
                <ele>96.269287</ele>
                <time>2009-06-28T04:00:27Z</time>
            </trkpt>
            <trkpt lon="101.855738" lat="14.175926">
                <ele>97.711182</ele>
                <time>2009-06-28T04:00:39Z</time>
            </trkpt>
            <trkpt lon="101.855412" lat="14.175827">
                <ele>95.788452</ele>
                <time>2009-06-28T04:00:49Z</time>
            </trkpt>
            <trkpt lon="101.855224" lat="14.175719">
                <ele>90.981934</ele>
                <time>2009-06-28T04:00:56Z</time>
            </trkpt>
            <trkpt lon="101.855107" lat="14.175505">
                <ele>101.556397</ele>
                <time>2009-06-28T04:01:21Z</time>
            </trkpt>
            <trkpt lon="101.854801" lat="14.174170">
                <ele>72.716919</ele>
                <time>2009-06-28T04:02:55Z</time>
            </trkpt>
            <trkpt lon="101.854975" lat="14.173509">
                <ele>70.313477</ele>
                <time>2009-06-28T04:03:10Z</time>
            </trkpt>
            <trkpt lon="101.854882" lat="14.172827">
                <ele>65.987671</ele>
                <time>2009-06-28T04:03:26Z</time>
            </trkpt>
            <trkpt lon="101.854581" lat="14.172345">
                <ele>65.987671</ele>
                <time>2009-06-28T04:03:41Z</time>
            </trkpt>
            <trkpt lon="101.853718" lat="14.169921">
                <ele>51.567871</ele>
                <time>2009-06-28T04:04:43Z</time>
            </trkpt>
            <trkpt lon="101.852656" lat="14.169792">
                <ele>50.606567</ele>
                <time>2009-06-28T04:05:15Z</time>
            </trkpt>
            <trkpt lon="101.852471" lat="14.169560">
                <ele>49.645264</ele>
                <time>2009-06-28T04:05:24Z</time>
            </trkpt>
            <trkpt lon="101.852230" lat="14.168444">
                <ele>49.164551</ele>
                <time>2009-06-28T04:05:56Z</time>
            </trkpt>
            <trkpt lon="101.851978" lat="14.168186">
                <ele>51.087158</ele>
                <time>2009-06-28T04:06:06Z</time>
            </trkpt>
            <trkpt lon="101.851728" lat="14.168019">
                <ele>49.164551</ele>
                <time>2009-06-28T04:06:15Z</time>
            </trkpt>
            <trkpt lon="101.851598" lat="14.167182">
                <ele>53.971191</ele>
                <time>2009-06-28T04:06:35Z</time>
            </trkpt>
            <trkpt lon="101.851369" lat="14.166832">
                <ele>53.009766</ele>
                <time>2009-06-28T04:06:45Z</time>
            </trkpt>
            <trkpt lon="101.850758" lat="14.167491">
                <ele>50.606567</ele>
                <time>2009-06-28T04:07:10Z</time>
            </trkpt>
            <trkpt lon="101.850147" lat="14.168144">
                <ele>44.838623</ele>
                <time>2009-06-28T04:07:35Z</time>
            </trkpt>
            <trkpt lon="101.849134" lat="14.169428">
                <ele>53.971191</ele>
                <time>2009-06-28T04:08:17Z</time>
            </trkpt>
            <trkpt lon="101.848505" lat="14.170115">
                <ele>55.413086</ele>
                <time>2009-06-28T04:09:03Z</time>
            </trkpt>
            <trkpt lon="101.847701" lat="14.171161">
                <ele>61.661743</ele>
                <time>2009-06-28T04:09:59Z</time>
            </trkpt>
            <trkpt lon="101.844889" lat="14.174489">
                <ele>54.451782</ele>
                <time>2009-06-28T04:11:30Z</time>
            </trkpt>
            <trkpt lon="101.844187" lat="14.175098">
                <ele>56.374512</ele>
                <time>2009-06-28T04:11:58Z</time>
            </trkpt>
            <trkpt lon="101.843578" lat="14.175305">
                <ele>58.297119</ele>
                <time>2009-06-28T04:12:17Z</time>
            </trkpt>
            <trkpt lon="101.842985" lat="14.175359">
                <ele>59.258423</ele>
                <time>2009-06-28T04:12:29Z</time>
            </trkpt>
            <trkpt lon="101.840279" lat="14.175744">
                <ele>47.241821</ele>
                <time>2009-06-28T04:13:33Z</time>
            </trkpt>
            <trkpt lon="101.839453" lat="14.175844">
                <ele>40.993408</ele>
                <time>2009-06-28T04:13:47Z</time>
            </trkpt>
            <trkpt lon="101.838976" lat="14.175610">
                <ele>40.032105</ele>
                <time>2009-06-28T04:13:49Z</time>
            </trkpt>
            <trkpt lon="101.838759" lat="14.175851">
                <ele>38.109375</ele>
                <time>2009-06-28T04:13:58Z</time>
            </trkpt>
            <trkpt lon="101.838791" lat="14.175827">
                <ele>48.683960</ele>
                <time>2009-06-28T04:15:34Z</time>
            </trkpt>
            <trkpt lon="101.838803" lat="14.175822">
                <ele>41.473999</ele>
                <time>2009-06-28T04:18:47Z</time>
            </trkpt>
            <trkpt lon="101.838984" lat="14.175598">
                <ele>38.109375</ele>
                <time>2009-06-28T04:21:05Z</time>
            </trkpt>
            <trkpt lon="101.839275" lat="14.175196">
                <ele>36.186768</ele>
                <time>2009-06-28T04:21:15Z</time>
            </trkpt>
            <trkpt lon="101.839598" lat="14.174660">
                <ele>35.706055</ele>
                <time>2009-06-28T04:21:28Z</time>
            </trkpt>
            <trkpt lon="101.840236" lat="14.173092">
                <ele>41.473999</ele>
                <time>2009-06-28T04:22:00Z</time>
            </trkpt>
            <trkpt lon="101.840268" lat="14.172786">
                <ele>40.512817</ele>
                <time>2009-06-28T04:22:06Z</time>
            </trkpt>
            <trkpt lon="101.839888" lat="14.171524">
                <ele>37.628662</ele>
                <time>2009-06-28T04:22:27Z</time>
            </trkpt>
            <trkpt lon="101.840069" lat="14.171080">
                <ele>48.203369</ele>
                <time>2009-06-28T04:23:03Z</time>
            </trkpt>
            <trkpt lon="101.840453" lat="14.170429">
                <ele>59.258423</ele>
                <time>2009-06-28T04:23:49Z</time>
            </trkpt>
            <trkpt lon="101.840700" lat="14.169566">
                <ele>63.103638</ele>
                <time>2009-06-28T04:24:22Z</time>
            </trkpt>
            <trkpt lon="101.840291" lat="14.168933">
                <ele>65.026367</ele>
                <time>2009-06-28T04:24:47Z</time>
            </trkpt>
            <trkpt lon="101.840619" lat="14.168731">
                <ele>63.103638</ele>
                <time>2009-06-28T04:24:59Z</time>
            </trkpt>
            <trkpt lon="101.841024" lat="14.168043">
                <ele>59.739136</ele>
                <time>2009-06-28T04:25:13Z</time>
            </trkpt>
            <trkpt lon="101.841423" lat="14.167315">
                <ele>55.413086</ele>
                <time>2009-06-28T04:25:25Z</time>
            </trkpt>
            <trkpt lon="101.841095" lat="14.165868">
                <ele>49.645264</ele>
                <time>2009-06-28T04:25:45Z</time>
            </trkpt>
            <trkpt lon="101.841358" lat="14.164764">
                <ele>43.877319</ele>
                <time>2009-06-28T04:25:58Z</time>
            </trkpt>
            <trkpt lon="101.841270" lat="14.162218">
                <ele>40.993408</ele>
                <time>2009-06-28T04:26:30Z</time>
            </trkpt>
            <trkpt lon="101.838950" lat="14.160060">
                <ele>38.590088</ele>
                <time>2009-06-28T04:27:14Z</time>
            </trkpt>
            <trkpt lon="101.838817" lat="14.159816">
                <ele>38.109375</ele>
                <time>2009-06-28T04:27:18Z</time>
            </trkpt>
            <trkpt lon="101.838938" lat="14.159400">
                <ele>34.744873</ele>
                <time>2009-06-28T04:27:25Z</time>
            </trkpt>
            <trkpt lon="101.839680" lat="14.158779">
                <ele>33.783447</ele>
                <time>2009-06-28T04:27:39Z</time>
            </trkpt>
            <trkpt lon="101.840520" lat="14.157848">
                <ele>36.667481</ele>
                <time>2009-06-28T04:28:03Z</time>
            </trkpt>
            <trkpt lon="101.840501" lat="14.157158">
                <ele>43.877319</ele>
                <time>2009-06-28T04:28:47Z</time>
            </trkpt>
            <trkpt lon="101.840113" lat="14.156931">
                <ele>43.396606</ele>
                <time>2009-06-28T04:29:01Z</time>
            </trkpt>
            <trkpt lon="101.839585" lat="14.156228">
                <ele>45.799927</ele>
                <time>2009-06-28T04:29:40Z</time>
            </trkpt>
            <trkpt lon="101.839670" lat="14.155676">
                <ele>50.125977</ele>
                <time>2009-06-28T04:30:08Z</time>
            </trkpt>
            <trkpt lon="101.839760" lat="14.155506">
                <ele>50.125977</ele>
                <time>2009-06-28T04:30:20Z</time>
            </trkpt>
            <trkpt lon="101.839542" lat="14.154265">
                <ele>42.916016</ele>
                <time>2009-06-28T04:31:00Z</time>
            </trkpt>
            <trkpt lon="101.839652" lat="14.153897">
                <ele>40.993408</ele>
                <time>2009-06-28T04:31:09Z</time>
            </trkpt>
            <trkpt lon="101.840524" lat="14.153875">
                <ele>42.435425</ele>
                <time>2009-06-28T04:31:31Z</time>
            </trkpt>
            <trkpt lon="101.840868" lat="14.153717">
                <ele>45.799927</ele>
                <time>2009-06-28T04:31:44Z</time>
            </trkpt>
            <trkpt lon="101.841029" lat="14.153270">
                <ele>45.319214</ele>
                <time>2009-06-28T04:31:59Z</time>
            </trkpt>
            <trkpt lon="101.841741" lat="14.153163">
                <ele>52.048584</ele>
                <time>2009-06-28T04:32:27Z</time>
            </trkpt>
            <trkpt lon="101.842127" lat="14.152967">
                <ele>54.932373</ele>
                <time>2009-06-28T04:32:42Z</time>
            </trkpt>
            <trkpt lon="101.842487" lat="14.152673">
                <ele>54.451782</ele>
                <time>2009-06-28T04:32:55Z</time>
            </trkpt>
            <trkpt lon="101.842625" lat="14.152381">
                <ele>52.529175</ele>
                <time>2009-06-28T04:33:02Z</time>
            </trkpt>
            <trkpt lon="101.842267" lat="14.150274">
                <ele>51.087158</ele>
                <time>2009-06-28T04:34:18Z</time>
            </trkpt>
            <trkpt lon="101.842428" lat="14.148826">
                <ele>49.645264</ele>
                <time>2009-06-28T04:34:48Z</time>
            </trkpt>
            <trkpt lon="101.842634" lat="14.147586">
                <ele>46.280640</ele>
                <time>2009-06-28T04:35:16Z</time>
            </trkpt>
            <trkpt lon="101.843451" lat="14.146864">
                <ele>46.761231</ele>
                <time>2009-06-28T04:35:56Z</time>
            </trkpt>
            <trkpt lon="101.844053" lat="14.145637">
                <ele>48.203369</ele>
                <time>2009-06-28T04:36:49Z</time>
            </trkpt>
            <trkpt lon="101.845097" lat="14.144151">
                <ele>50.606567</ele>
                <time>2009-06-28T04:37:38Z</time>
            </trkpt>
            <trkpt lon="101.845677" lat="14.144092">
                <ele>51.567871</ele>
                <time>2009-06-28T04:37:53Z</time>
            </trkpt>
            <trkpt lon="101.846687" lat="14.143968">
                <ele>49.645264</ele>
                <time>2009-06-28T04:38:11Z</time>
            </trkpt>
            <trkpt lon="101.846862" lat="14.143766">
                <ele>49.645264</ele>
                <time>2009-06-28T04:38:17Z</time>
            </trkpt>
            <trkpt lon="101.846660" lat="14.142676">
                <ele>56.374512</ele>
                <time>2009-06-28T04:38:51Z</time>
            </trkpt>
            <trkpt lon="101.846613" lat="14.142462">
                <ele>56.374512</ele>
                <time>2009-06-28T04:38:58Z</time>
            </trkpt>
            <trkpt lon="101.847910" lat="14.142164">
                <ele>48.683960</ele>
                <time>2009-06-28T04:39:27Z</time>
            </trkpt>
            <trkpt lon="101.848867" lat="14.142190">
                <ele>43.396606</ele>
                <time>2009-06-28T04:39:39Z</time>
            </trkpt>
            <trkpt lon="101.850786" lat="14.141947">
                <ele>37.148071</ele>
                <time>2009-06-28T04:40:03Z</time>
            </trkpt>
            <trkpt lon="101.851456" lat="14.141397">
                <ele>36.667481</ele>
                <time>2009-06-28T04:40:31Z</time>
            </trkpt>
            <trkpt lon="101.851853" lat="14.141267">
                <ele>37.148071</ele>
                <time>2009-06-28T04:40:45Z</time>
            </trkpt>
            <trkpt lon="101.852861" lat="14.141342">
                <ele>40.512817</ele>
                <time>2009-06-28T04:41:22Z</time>
            </trkpt>
            <trkpt lon="101.853143" lat="14.141540">
                <ele>41.954712</ele>
                <time>2009-06-28T04:41:37Z</time>
            </trkpt>
            <trkpt lon="101.853149" lat="14.142215">
                <ele>41.473999</ele>
                <time>2009-06-28T04:41:55Z</time>
            </trkpt>
            <trkpt lon="101.853391" lat="14.142819">
                <ele>41.954712</ele>
                <time>2009-06-28T04:42:09Z</time>
            </trkpt>
            <trkpt lon="101.853433" lat="14.142880">
                <ele>41.473999</ele>
                <time>2009-06-28T04:42:11Z</time>
            </trkpt>
            <trkpt lon="101.853350" lat="14.143523">
                <ele>41.473999</ele>
                <time>2009-06-28T04:42:22Z</time>
            </trkpt>
            <trkpt lon="101.852870" lat="14.144319">
                <ele>38.109375</ele>
                <time>2009-06-28T04:42:37Z</time>
            </trkpt>
            <trkpt lon="101.851559" lat="14.145226">
                <ele>34.744873</ele>
                <time>2009-06-28T04:43:04Z</time>
            </trkpt>
            <trkpt lon="101.851500" lat="14.145527">
                <ele>33.783447</ele>
                <time>2009-06-28T04:43:12Z</time>
            </trkpt>
            <trkpt lon="101.851983" lat="14.146458">
                <ele>42.916016</ele>
                <time>2009-06-28T04:43:38Z</time>
            </trkpt>
            <trkpt lon="101.852118" lat="14.146757">
                <ele>43.877319</ele>
                <time>2009-06-28T04:43:48Z</time>
            </trkpt>
            <trkpt lon="101.852325" lat="14.147189">
                <ele>43.396606</ele>
                <time>2009-06-28T04:44:02Z</time>
            </trkpt>
            <trkpt lon="101.852414" lat="14.147511">
                <ele>39.551269</ele>
                <time>2009-06-28T04:44:10Z</time>
            </trkpt>
            <trkpt lon="101.853057" lat="14.148557">
                <ele>38.590088</ele>
                <time>2009-06-28T04:44:29Z</time>
            </trkpt>
            <trkpt lon="101.854295" lat="14.149103">
                <ele>44.358032</ele>
                <time>2009-06-28T04:44:53Z</time>
            </trkpt>
            <trkpt lon="101.854710" lat="14.149067">
                <ele>43.877319</ele>
                <time>2009-06-28T04:45:00Z</time>
            </trkpt>
            <trkpt lon="101.855004" lat="14.149198">
                <ele>44.358032</ele>
                <time>2009-06-28T04:45:06Z</time>
            </trkpt>
            <trkpt lon="101.855329" lat="14.149751">
                <ele>44.358032</ele>
                <time>2009-06-28T04:45:20Z</time>
            </trkpt>
            <trkpt lon="101.856932" lat="14.151044">
                <ele>45.319214</ele>
                <time>2009-06-28T04:45:56Z</time>
            </trkpt>
            <trkpt lon="101.857649" lat="14.151670">
                <ele>44.838623</ele>
                <time>2009-06-28T04:46:13Z</time>
            </trkpt>
            <trkpt lon="101.859219" lat="14.151938">
                <ele>39.551269</ele>
                <time>2009-06-28T04:46:37Z</time>
            </trkpt>
            <trkpt lon="101.859576" lat="14.151819">
                <ele>39.551269</ele>
                <time>2009-06-28T04:46:43Z</time>
            </trkpt>
            <trkpt lon="101.860545" lat="14.151116">
                <ele>43.877319</ele>
                <time>2009-06-28T04:47:10Z</time>
            </trkpt>
            <trkpt lon="101.861007" lat="14.151391">
                <ele>44.838623</ele>
                <time>2009-06-28T04:47:25Z</time>
            </trkpt>
            <trkpt lon="101.861605" lat="14.152346">
                <ele>47.241821</ele>
                <time>2009-06-28T04:47:57Z</time>
            </trkpt>
            <trkpt lon="101.861812" lat="14.152788">
                <ele>48.203369</ele>
                <time>2009-06-28T04:48:10Z</time>
            </trkpt>
            <trkpt lon="101.861673" lat="14.153614">
                <ele>42.916016</ele>
                <time>2009-06-28T04:48:25Z</time>
            </trkpt>
            <trkpt lon="101.861869" lat="14.153785">
                <ele>42.916016</ele>
                <time>2009-06-28T04:48:31Z</time>
            </trkpt>
            <trkpt lon="101.862771" lat="14.153967">
                <ele>45.319214</ele>
                <time>2009-06-28T04:48:52Z</time>
            </trkpt>
            <trkpt lon="101.864827" lat="14.154083">
                <ele>67.910278</ele>
                <time>2009-06-28T04:50:39Z</time>
            </trkpt>
            <trkpt lon="101.865652" lat="14.154373">
                <ele>71.755493</ele>
                <time>2009-06-28T04:51:14Z</time>
            </trkpt>
            <trkpt lon="101.867227" lat="14.154907">
                <ele>71.755493</ele>
                <time>2009-06-28T04:52:54Z</time>
            </trkpt>
            <trkpt lon="101.864948" lat="14.153944">
                <ele>68.390869</ele>
                <time>2009-06-28T04:53:59Z</time>
            </trkpt>
            <trkpt lon="101.864556" lat="14.153594">
                <ele>64.545654</ele>
                <time>2009-06-28T04:54:07Z</time>
            </trkpt>
            <trkpt lon="101.863523" lat="14.152213">
                <ele>54.932373</ele>
                <time>2009-06-28T04:54:29Z</time>
            </trkpt>
            <trkpt lon="101.863401" lat="14.151986">
                <ele>52.529175</ele>
                <time>2009-06-28T04:54:33Z</time>
            </trkpt>
            <trkpt lon="101.862705" lat="14.151508">
                <ele>46.761231</ele>
                <time>2009-06-28T04:54:47Z</time>
            </trkpt>
            <trkpt lon="101.862053" lat="14.150296">
                <ele>43.396606</ele>
                <time>2009-06-28T04:55:05Z</time>
            </trkpt>
            <trkpt lon="101.861611" lat="14.149794">
                <ele>44.358032</ele>
                <time>2009-06-28T04:55:16Z</time>
            </trkpt>
            <trkpt lon="101.861465" lat="14.148936">
                <ele>45.319214</ele>
                <time>2009-06-28T04:55:33Z</time>
            </trkpt>
            <trkpt lon="101.860615" lat="14.147948">
                <ele>44.358032</ele>
                <time>2009-06-28T04:56:01Z</time>
            </trkpt>
            <trkpt lon="101.860263" lat="14.147053">
                <ele>48.203369</ele>
                <time>2009-06-28T04:56:25Z</time>
            </trkpt>
            <trkpt lon="101.860126" lat="14.146671">
                <ele>46.280640</ele>
                <time>2009-06-28T04:56:33Z</time>
            </trkpt>
            <trkpt lon="101.860150" lat="14.146301">
                <ele>44.358032</ele>
                <time>2009-06-28T04:56:39Z</time>
            </trkpt>
            <trkpt lon="101.860556" lat="14.145564">
                <ele>41.954712</ele>
                <time>2009-06-28T04:56:51Z</time>
            </trkpt>
            <trkpt lon="101.861203" lat="14.144950">
                <ele>41.954712</ele>
                <time>2009-06-28T04:57:04Z</time>
            </trkpt>
            <trkpt lon="101.861704" lat="14.144870">
                <ele>39.551269</ele>
                <time>2009-06-28T04:57:17Z</time>
            </trkpt>
            <trkpt lon="101.862073" lat="14.144404">
                <ele>39.551269</ele>
                <time>2009-06-28T04:57:28Z</time>
            </trkpt>
            <trkpt lon="101.862800" lat="14.144043">
                <ele>40.032105</ele>
                <time>2009-06-28T04:57:41Z</time>
            </trkpt>
            <trkpt lon="101.863161" lat="14.143946">
                <ele>40.032105</ele>
                <time>2009-06-28T04:57:47Z</time>
            </trkpt>
            <trkpt lon="101.863966" lat="14.144166">
                <ele>40.512817</ele>
                <time>2009-06-28T04:58:00Z</time>
            </trkpt>
            <trkpt lon="101.864914" lat="14.144503">
                <ele>38.590088</ele>
                <time>2009-06-28T04:58:14Z</time>
            </trkpt>
            <trkpt lon="101.866145" lat="14.144232">
                <ele>42.435425</ele>
                <time>2009-06-28T04:59:21Z</time>
            </trkpt>
            <trkpt lon="101.866139" lat="14.144047">
                <ele>42.435425</ele>
                <time>2009-06-28T04:59:36Z</time>
            </trkpt>
            <trkpt lon="101.866137" lat="14.144001">
                <ele>38.109375</ele>
                <time>2009-06-28T05:01:06Z</time>
            </trkpt>
        </trkseg>
    </trk>
</gpx>